createdAt,value
2023-02-06T00:00:25.691Z,7.07
2023-02-06T00:02:52.247Z,7.20
2023-02-06T00:05:18.859Z,8.77
2023-02-06T00:07:46.829Z,7.83
2023-02-06T00:10:13.514Z,6.00
2023-02-06T00:12:40.060Z,6.07
2023-02-06T00:15:07.216Z,7.40
2023-02-06T00:17:35.117Z,7.57
2023-02-06T00:20:01.920Z,8.60
2023-02-06T00:22:28.469Z,8.67
2023-02-06T00:24:56.341Z,8.43
2023-02-06T00:27:22.942Z,7.87
2023-02-06T00:29:49.511Z,7.67
2023-02-06T00:32:16.334Z,6.27
2023-02-06T00:34:42.896Z,8.27
2023-02-06T00:37:09.451Z,6.27
2023-02-06T00:39:36.132Z,8.17
2023-02-06T00:42:04.126Z,7.67
2023-02-06T00:44:30.672Z,5.60
2023-02-06T00:46:58.721Z,6.43
2023-02-06T00:49:25.514Z,6.07
2023-02-06T00:51:52.056Z,4.80
2023-02-06T00:54:20.779Z,6.60
2023-02-06T00:56:47.536Z,6.77
2023-02-06T00:59:15.483Z,7.97
2023-02-06T01:01:42.179Z,6.33
2023-02-06T01:04:08.723Z,7.17
2023-02-06T01:06:35.259Z,6.33
2023-02-06T01:09:01.820Z,7.53
2023-02-06T01:11:28.461Z,14.33
2023-02-06T01:13:55.188Z,9.90
2023-02-06T01:16:24.823Z,6.37
2023-02-06T01:21:22.847Z,7.50
2023-02-06T01:23:51.985Z,7.37
2023-02-06T01:26:20.264Z,6.70
2023-02-06T01:28:47.871Z,6.93
2023-02-06T01:31:17.248Z,7.73
2023-02-06T01:33:46.094Z,7.80
2023-02-06T01:36:13.449Z,7.20
2023-02-06T01:38:40.735Z,6.13
2023-02-06T01:41:08.987Z,7.20
2023-02-06T01:43:36.989Z,7.33
2023-02-06T01:46:04.060Z,9.30
2023-02-06T01:48:34.305Z,7.50
2023-02-06T01:51:05.173Z,11.20
2023-02-06T01:53:32.679Z,7.97
2023-02-06T01:56:04.619Z,6.77
2023-02-06T01:58:34.302Z,6.33
2023-02-06T02:03:29.927Z,6.60
2023-02-06T02:06:05.932Z,7.87
2023-02-06T02:08:36.657Z,7.73
2023-02-06T02:11:05.297Z,7.73
2023-02-06T02:13:32.157Z,7.57
2023-02-06T02:16:01.056Z,8.50
2023-02-06T02:18:55.381Z,7.63
2023-02-06T02:21:58.586Z,8.50
2023-02-06T02:24:38.787Z,7.97
2023-02-06T02:27:29.902Z,7.20
2023-02-06T02:30:41.577Z,8.77
2023-02-06T02:33:20.030Z,7.77
2023-02-06T02:35:54.730Z,7.73
2023-02-06T02:38:30.530Z,8.90
2023-02-06T02:41:03.696Z,11.60
2023-02-06T02:43:38.252Z,8.03
2023-02-06T02:46:14.035Z,10.17
2023-02-06T02:48:44.033Z,10.40
2023-02-06T02:51:12.649Z,10.33
2023-02-06T02:53:39.447Z,9.03
2023-02-06T02:56:16.156Z,8.30
2023-02-06T02:58:45.870Z,9.17
2023-02-06T03:03:44.560Z,9.23
2023-02-06T03:06:38.547Z,7.57
2023-02-06T03:09:11.546Z,9.60
2023-02-06T03:11:44.191Z,8.47
2023-02-06T03:14:17.871Z,8.33
2023-02-06T03:16:50.359Z,8.90
2023-02-06T03:19:21.559Z,9.00
2023-02-06T03:21:49.996Z,11.13
2023-02-06T03:24:21.192Z,8.63
2023-02-06T03:26:50.214Z,9.23
2023-02-06T03:29:18.769Z,9.35
2023-02-06T03:31:49.591Z,9.57
2023-02-06T03:34:22.154Z,9.60
2023-02-06T03:36:51.700Z,9.70
2023-02-06T03:39:18.585Z,9.50
2023-02-06T03:41:47.055Z,9.87
2023-02-06T03:44:18.818Z,13.23
2023-02-06T03:46:47.539Z,10.20
2023-02-06T03:49:16.807Z,13.10
2023-02-06T03:51:47.382Z,13.38
2023-02-06T03:54:19.318Z,13.40
2023-02-06T03:56:52.214Z,10.23
2023-02-06T03:59:18.810Z,12.13
2023-02-06T04:01:49.118Z,13.23
2023-02-06T04:04:16.138Z,14.37
2023-02-06T04:06:42.954Z,12.47
2023-02-06T04:09:09.546Z,12.27
2023-02-06T04:11:37.441Z,14.03
2023-02-06T04:14:04.200Z,16.33
2023-02-06T04:16:30.857Z,17.63
2023-02-06T04:18:57.472Z,16.83
2023-02-06T04:21:24.001Z,13.37
2023-02-06T04:23:50.539Z,13.00
2023-02-06T04:26:17.069Z,13.03
2023-02-06T04:28:44.965Z,12.80
2023-02-06T04:31:11.609Z,11.87
2023-02-06T04:33:38.198Z,12.70
2023-02-06T04:36:05.170Z,12.47
2023-02-06T04:38:31.690Z,10.13
2023-02-06T04:41:02.499Z,13.07
2023-02-06T04:43:29.134Z,9.63
2023-02-06T04:45:57.260Z,9.87
2023-02-06T04:48:23.830Z,10.20
2023-02-06T04:50:50.966Z,10.23
2023-02-06T04:53:17.661Z,9.03
2023-02-06T04:55:44.183Z,8.70
2023-02-06T04:58:10.944Z,11.27
2023-02-06T05:00:38.811Z,9.43
2023-02-06T05:03:07.161Z,11.30
2023-02-06T05:05:33.829Z,9.80
2023-02-06T05:08:00.529Z,9.10
2023-02-06T05:10:27.418Z,8.27
2023-02-06T05:12:55.976Z,9.73
2023-02-06T05:15:22.780Z,10.50
2023-02-06T05:17:49.330Z,9.93
2023-02-06T05:20:17.569Z,10.60
2023-02-06T05:22:44.099Z,10.23
2023-02-06T05:25:10.626Z,7.93
2023-02-06T05:27:37.153Z,7.97
2023-02-06T05:30:04.346Z,8.13
2023-02-06T05:32:30.881Z,9.83
2023-02-06T05:34:57.437Z,10.07
2023-02-06T05:37:25.294Z,9.03
2023-02-06T05:39:51.860Z,9.07
2023-02-06T05:42:18.374Z,8.63
2023-02-06T05:44:44.917Z,8.00
2023-02-06T05:47:11.464Z,11.80
2023-02-06T05:49:38.104Z,9.20
2023-02-06T05:52:05.380Z,8.93
2023-02-06T05:54:33.245Z,8.93
2023-02-06T05:56:59.882Z,8.53
2023-02-06T05:59:26.546Z,8.10
2023-02-06T06:01:53.343Z,7.20
2023-02-06T06:04:19.894Z,7.67
2023-02-06T06:06:46.473Z,7.47
2023-02-06T06:09:13.005Z,10.50
2023-02-06T06:11:40.880Z,8.97
2023-02-06T06:14:07.446Z,9.80
2023-02-06T06:16:34.431Z,10.17
2023-02-06T06:19:01.827Z,8.77
2023-02-06T06:21:28.379Z,8.47
2023-02-06T06:23:54.937Z,8.73
2023-02-06T06:26:21.738Z,8.10
2023-02-06T06:28:49.598Z,8.27
2023-02-06T06:31:16.434Z,8.63
2023-02-06T06:33:43.044Z,9.20
2023-02-06T06:36:14.232Z,9.00
2023-02-06T06:38:41.311Z,9.10
2023-02-06T06:41:07.982Z,9.80
2023-02-06T06:43:34.782Z,13.27
2023-02-06T06:46:04.592Z,9.20
2023-02-06T06:48:31.541Z,7.53
2023-02-06T06:50:58.087Z,8.27
2023-02-06T06:53:24.616Z,8.47
2023-02-06T06:55:51.140Z,6.77
2023-02-06T06:58:17.689Z,8.40
2023-02-06T07:00:44.870Z,8.30
2023-02-06T07:03:12.891Z,8.83
2023-02-06T07:05:39.577Z,8.20
2023-02-06T07:08:06.307Z,8.60
2023-02-06T07:10:32.983Z,8.80
2023-02-06T07:12:59.566Z,9.23
2023-02-06T07:15:26.124Z,9.50
2023-02-06T07:17:52.710Z,7.60
2023-02-06T07:20:20.626Z,8.07
2023-02-06T07:22:47.566Z,10.23
2023-02-06T07:25:14.118Z,9.33
2023-02-06T07:27:40.689Z,10.67
2023-02-06T07:30:08.851Z,7.30
2023-02-06T07:32:35.695Z,8.10
2023-02-06T07:35:02.538Z,8.07
2023-02-06T07:37:30.644Z,8.07
2023-02-06T07:39:57.295Z,7.97
2023-02-06T07:42:23.846Z,8.10
2023-02-06T07:44:50.930Z,8.53
2023-02-06T07:47:17.524Z,9.13
2023-02-06T07:49:44.050Z,8.77
2023-02-06T07:52:10.602Z,8.87
2023-02-06T07:54:38.497Z,8.20
2023-02-06T07:57:05.038Z,8.47
2023-02-06T07:59:31.687Z,7.37
2023-02-06T08:01:58.453Z,8.10
2023-02-06T08:04:25.127Z,13.60
2023-02-06T08:06:52.843Z,9.30
2023-02-06T08:09:19.410Z,8.70
2023-02-06T08:11:47.527Z,9.30
2023-02-06T08:14:14.061Z,9.63
2023-02-06T08:16:40.853Z,9.50
2023-02-06T08:19:10.758Z,8.63
2023-02-06T08:21:37.584Z,10.10
2023-02-06T08:24:04.925Z,11.13
2023-02-06T08:26:31.965Z,8.63
2023-02-06T08:29:02.897Z,8.70
2023-02-06T08:31:31.561Z,13.57
2023-02-06T08:33:58.203Z,14.80
2023-02-06T08:36:25.867Z,16.77
2023-02-06T08:38:53.099Z,13.27
2023-02-06T08:41:22.090Z,15.83
2023-02-06T08:43:50.594Z,13.65
2023-02-06T08:46:19.853Z,14.60
2023-02-06T08:48:46.796Z,16.92
2023-02-06T08:51:14.239Z,20.27
2023-02-06T08:53:41.295Z,13.23
2023-02-06T08:56:10.424Z,11.63
2023-02-06T08:58:37.720Z,13.55
2023-02-06T09:01:07.789Z,15.13
2023-02-06T09:03:36.200Z,14.57
2023-02-06T09:06:09.694Z,14.63
2023-02-06T09:08:38.002Z,15.23
2023-02-06T09:11:05.453Z,13.57
2023-02-06T09:13:32.180Z,14.43
2023-02-06T09:15:58.973Z,13.00
2023-02-06T09:18:25.553Z,14.83
2023-02-06T09:21:03.331Z,13.10
2023-02-06T09:23:29.891Z,11.90
2023-02-06T09:25:56.418Z,13.53
2023-02-06T09:28:23.072Z,11.20
2023-02-06T09:30:50.083Z,11.07
2023-02-06T09:33:16.692Z,12.07
2023-02-06T09:35:43.208Z,13.60
2023-02-06T09:38:11.146Z,11.57
2023-02-06T09:40:37.735Z,13.10
2023-02-06T09:43:05.082Z,9.83
2023-02-06T09:45:32.991Z,9.47
2023-02-06T09:48:06.219Z,10.40
2023-02-06T09:50:45.541Z,12.83
2023-02-06T09:53:20.889Z,9.90
2023-02-06T09:55:51.979Z,8.17
2023-02-06T09:58:30.071Z,10.30
2023-02-06T10:01:02.655Z,9.80
2023-02-06T10:03:44.934Z,12.40
2023-02-06T10:06:19.083Z,14.00
2023-02-06T10:08:54.067Z,11.17
2023-02-06T10:11:30.870Z,9.77
2023-02-06T10:14:00.577Z,8.53
2023-02-06T10:19:09.718Z,9.60
2023-02-06T10:21:41.306Z,13.20
2023-02-06T10:24:17.853Z,11.50
2023-02-06T10:26:47.870Z,13.13
2023-02-06T10:29:21.011Z,11.33
2023-02-06T10:31:59.490Z,12.30
2023-02-06T10:34:47.397Z,12.63
2023-02-06T10:37:26.062Z,12.00
2023-02-06T10:40:03.154Z,13.30
2023-02-06T10:42:45.549Z,12.40
2023-02-06T10:45:22.042Z,11.53
2023-02-06T10:47:54.971Z,11.77
2023-02-06T10:50:26.747Z,15.77
2023-02-06T10:52:55.632Z,18.83
2023-02-06T10:55:27.371Z,14.25
2023-02-06T10:58:06.813Z,12.07
2023-02-06T11:00:34.448Z,14.50
2023-02-06T11:03:08.160Z,12.97
2023-02-06T11:05:35.991Z,10.43
2023-02-06T11:08:11.087Z,12.60
2023-02-06T11:10:39.950Z,13.27
2023-02-06T11:13:12.681Z,10.38
2023-02-06T11:15:45.575Z,9.77
2023-02-06T11:18:18.633Z,11.30
2023-02-06T11:20:48.370Z,14.57
2023-02-06T11:25:46.086Z,11.63
2023-02-06T11:28:15.081Z,13.43
2023-02-06T11:30:53.318Z,12.50
2023-02-06T11:33:25.086Z,17.93
2023-02-06T11:35:54.783Z,12.67
2023-02-06T11:41:00.537Z,13.67
2023-02-06T11:43:29.933Z,13.20
2023-02-06T11:46:13.763Z,11.00
2023-02-06T11:48:42.176Z,11.47
2023-02-06T11:51:10.420Z,13.47
2023-02-06T11:53:37.903Z,10.97
2023-02-06T11:56:16.570Z,9.43
2023-02-06T11:58:44.026Z,17.30
2023-02-06T12:01:18.140Z,13.73
2023-02-06T12:03:54.926Z,13.17
2023-02-06T12:06:28.191Z,11.07
2023-02-06T12:08:57.397Z,20.10
2023-02-06T12:11:29.456Z,14.13
2023-02-06T12:14:00.498Z,15.40
2023-02-06T12:16:27.669Z,14.17
2023-02-06T12:18:57.509Z,13.90
2023-02-06T12:21:30.127Z,10.90
2023-02-06T12:24:00.071Z,16.50
2023-02-06T12:26:30.396Z,10.13
2023-02-06T12:29:02.750Z,12.20
2023-02-06T12:31:38.227Z,13.37
2023-02-06T12:34:13.771Z,13.27
2023-02-06T12:36:53.303Z,14.37
2023-02-06T12:39:21.759Z,13.60
2023-02-06T12:42:06.538Z,14.37
2023-02-06T12:44:39.332Z,11.17
2023-02-06T12:47:18.834Z,11.53
2023-02-06T12:49:52.425Z,12.00
2023-02-06T12:52:24.914Z,10.37
2023-02-06T12:54:55.516Z,10.97
2023-02-06T12:57:26.763Z,10.77
2023-02-06T13:00:20.360Z,11.23
2023-02-06T13:03:12.704Z,11.93
2023-02-06T13:05:41.461Z,9.57
2023-02-06T13:08:12.896Z,11.17
2023-02-06T13:10:40.344Z,9.93
2023-02-06T13:13:25.732Z,9.47
2023-02-06T13:15:54.896Z,9.43
2023-02-06T13:18:54.025Z,10.18
2023-02-06T13:21:24.114Z,10.43
2023-02-06T13:24:06.491Z,9.77
2023-02-06T13:27:10.617Z,9.93
2023-02-06T13:29:39.601Z,11.03
2023-02-06T13:32:40.859Z,7.90
2023-02-06T13:35:20.006Z,18.40
2023-02-06T13:37:48.436Z,18.05
2023-02-06T13:40:27.383Z,11.27
2023-02-06T13:42:56.855Z,12.50
2023-02-06T13:45:27.612Z,11.93
2023-02-06T13:48:29.709Z,13.37
2023-02-06T13:51:25.745Z,11.27
2023-02-06T13:54:30.535Z,13.43
2023-02-06T13:57:16.989Z,12.07
2023-02-06T13:59:48.961Z,9.83
2023-02-06T14:02:24.231Z,11.63
2023-02-06T14:04:51.266Z,12.73
2023-02-06T14:07:54.890Z,14.17
2023-02-06T14:10:41.995Z,11.23
2023-02-06T14:13:23.562Z,9.37
2023-02-06T14:15:58.718Z,11.10
2023-02-06T14:18:38.309Z,10.10
2023-02-06T14:21:16.467Z,9.90
2023-02-06T14:24:07.542Z,9.17
2023-02-06T14:26:44.004Z,10.10
2023-02-06T14:29:22.174Z,8.50
2023-02-06T14:32:25.838Z,10.37
2023-02-06T14:35:06.016Z,10.23
2023-02-06T14:37:45.052Z,10.17
2023-02-06T14:40:17.778Z,9.52
2023-02-06T14:42:46.087Z,13.03
2023-02-06T14:45:25.718Z,10.67
2023-02-06T14:47:54.808Z,12.35
2023-02-06T14:50:25.262Z,12.13
2023-02-06T14:52:54.295Z,11.30
2023-02-06T14:55:30.540Z,12.88
2023-02-06T14:57:57.942Z,8.87
2023-02-06T15:00:25.921Z,10.33
2023-02-06T15:03:04.545Z,12.27
2023-02-06T15:05:33.249Z,11.67
2023-02-06T15:08:02.202Z,10.63
2023-02-06T15:10:30.804Z,10.52
2023-02-06T15:12:57.550Z,11.63
2023-02-06T15:15:25.751Z,9.93
2023-02-06T15:18:00.410Z,9.43
2023-02-06T15:20:30.467Z,7.73
2023-02-06T15:23:17.130Z,9.00
2023-02-06T15:25:58.625Z,9.60
2023-02-06T15:28:29.232Z,11.83
2023-02-06T15:30:57.425Z,8.93
2023-02-06T15:33:28.086Z,7.90
2023-02-06T15:35:56.616Z,9.10
2023-02-06T15:38:26.496Z,7.97
2023-02-06T15:40:55.877Z,7.97
2023-02-06T15:43:25.382Z,9.13
2023-02-06T15:45:55.589Z,10.95
2023-02-06T15:48:26.413Z,8.30
2023-02-06T15:50:58.371Z,8.43
2023-02-06T15:53:35.993Z,10.00
2023-02-06T15:56:04.724Z,8.57
2023-02-06T15:58:32.894Z,7.70
2023-02-06T16:01:00.476Z,8.23
2023-02-06T16:03:29.327Z,8.00
2023-02-06T16:05:56.700Z,7.05
2023-02-06T16:08:29.072Z,9.03
2023-02-06T16:11:01.074Z,7.40
2023-02-06T16:13:30.573Z,10.67
2023-02-06T16:16:07.149Z,9.45
2023-02-06T16:18:35.327Z,9.57
2023-02-06T16:21:14.691Z,10.03
2023-02-06T16:23:45.747Z,10.07
2023-02-06T16:26:16.783Z,13.37
2023-02-06T16:28:56.744Z,9.13
2023-02-06T16:31:25.614Z,10.40
2023-02-06T16:33:53.680Z,8.45
2023-02-06T16:36:22.242Z,10.53
2023-02-06T16:39:02.872Z,10.30
2023-02-06T16:41:34.133Z,11.73
2023-02-06T16:44:02.180Z,13.20
2023-02-06T16:46:29.683Z,11.83
2023-02-06T16:48:58.284Z,10.20
2023-02-06T16:51:28.279Z,13.23
2023-02-06T16:53:55.340Z,10.90
2023-02-06T16:56:22.005Z,12.80
2023-02-06T16:58:50.461Z,9.27
2023-02-06T17:01:22.905Z,8.30
2023-02-06T17:03:50.489Z,8.60
2023-02-06T17:06:20.756Z,9.90
2023-02-06T17:08:47.974Z,9.83
2023-02-06T17:11:14.605Z,10.40
2023-02-06T17:13:41.189Z,11.07
2023-02-06T17:16:15.002Z,8.27
2023-02-06T17:18:41.569Z,9.20
2023-02-06T17:21:12.605Z,9.13
2023-02-06T17:23:39.510Z,12.33
2023-02-06T17:26:06.316Z,9.97
2023-02-06T17:28:32.836Z,9.13
2023-02-06T17:30:59.433Z,9.23
2023-02-06T17:33:27.575Z,7.17
2023-02-06T17:35:54.148Z,8.53
2023-02-06T17:38:20.746Z,10.17
2023-02-06T17:40:47.349Z,9.73
2023-02-06T17:43:13.926Z,10.10
2023-02-06T17:45:40.822Z,11.17
2023-02-06T17:48:07.912Z,10.43
2023-02-06T17:50:38.037Z,9.87
2023-02-06T17:53:05.891Z,9.20
2023-02-06T17:55:34.203Z,11.40
2023-02-06T17:58:01.169Z,9.30
2023-02-06T18:00:27.713Z,9.23
2023-02-06T18:02:55.669Z,10.77
2023-02-06T18:05:22.946Z,7.80
2023-02-06T18:07:51.826Z,9.83
2023-02-06T18:10:20.132Z,13.38
2023-02-06T18:12:46.924Z,15.23
2023-02-06T18:15:15.242Z,11.40
2023-02-06T18:17:42.709Z,12.13
2023-02-06T18:20:11.304Z,11.30
2023-02-06T18:22:41.257Z,15.70
2023-02-06T18:25:11.444Z,15.10
2023-02-06T18:27:39.421Z,11.87
2023-02-06T18:30:06.764Z,17.13
2023-02-06T18:32:33.871Z,14.90
2023-02-06T18:35:00.713Z,12.90
2023-02-06T18:37:27.574Z,11.67
2023-02-06T18:39:55.277Z,12.03
2023-02-06T18:42:41.792Z,13.47
2023-02-06T18:45:09.297Z,12.10
2023-02-06T18:47:35.867Z,11.73
2023-02-06T18:50:02.456Z,11.27
2023-02-06T18:52:29.158Z,11.77
2023-02-06T18:54:55.720Z,14.70
2023-02-06T18:57:23.646Z,12.43
2023-02-06T18:59:50.211Z,11.30
2023-02-06T19:02:16.884Z,11.93
2023-02-06T19:04:43.500Z,10.07
2023-02-06T19:07:11.618Z,10.23
2023-02-06T19:09:38.299Z,11.67
2023-02-06T19:12:05.064Z,11.13
2023-02-06T19:14:32.928Z,11.63
2023-02-06T19:16:59.559Z,13.20
2023-02-06T19:19:26.171Z,11.83
2023-02-06T19:21:52.811Z,13.87
2023-02-06T19:24:19.580Z,13.07
2023-02-06T19:26:46.392Z,9.90
2023-02-06T19:29:15.017Z,10.30
2023-02-06T19:31:43.247Z,12.17
2023-02-06T19:34:09.938Z,9.47
2023-02-06T19:36:36.726Z,12.50
2023-02-06T19:39:06.697Z,15.90
2023-02-06T19:41:34.292Z,9.33
2023-02-06T19:44:03.099Z,8.77
2023-02-06T19:46:29.703Z,8.95
2023-02-06T19:48:57.672Z,9.90
2023-02-06T19:51:26.558Z,9.93
2023-02-06T19:53:55.168Z,10.77
2023-02-06T19:56:23.667Z,8.57
2023-02-06T19:58:53.839Z,7.67
2023-02-06T20:01:20.667Z,11.50
2023-02-06T20:03:47.423Z,9.63
2023-02-06T20:06:15.736Z,10.23
2023-02-06T20:08:44.346Z,8.93
2023-02-06T20:11:13.612Z,10.80
2023-02-06T20:13:40.867Z,11.30
2023-02-06T20:16:14.233Z,9.23
2023-02-06T20:18:40.952Z,9.70
2023-02-06T20:21:20.758Z,9.00
2023-02-06T20:23:49.626Z,9.77
2023-02-06T20:26:17.695Z,8.38
2023-02-06T20:28:44.962Z,7.90
2023-02-06T20:31:12.086Z,8.97
2023-02-06T20:33:38.965Z,8.17
2023-02-06T20:36:06.599Z,9.33
2023-02-06T20:38:34.572Z,7.00
2023-02-06T20:41:01.316Z,8.97
2023-02-06T20:43:28.564Z,7.13
2023-02-06T20:45:55.244Z,8.80
2023-02-06T20:48:22.489Z,10.73
2023-02-06T20:50:49.045Z,7.63
2023-02-06T20:53:15.575Z,9.57
2023-02-06T20:55:44.134Z,9.63
2023-02-06T20:58:10.691Z,9.10
2023-02-06T21:00:37.506Z,8.60
2023-02-06T21:03:04.547Z,9.37
2023-02-06T21:05:31.175Z,8.90
2023-02-06T21:07:58.813Z,9.57
2023-02-06T21:10:27.961Z,7.90
2023-02-06T21:12:56.051Z,8.07
2023-02-06T21:15:22.681Z,9.30
2023-02-06T21:17:49.341Z,8.73
2023-02-06T21:20:15.947Z,7.77
2023-02-06T21:22:42.623Z,13.00
2023-02-06T21:25:09.366Z,8.17
2023-02-06T21:27:37.268Z,8.80
2023-02-06T21:30:06.480Z,8.03
2023-02-06T21:32:33.773Z,7.13
2023-02-06T21:35:00.410Z,9.77
2023-02-06T21:37:27.088Z,9.53
2023-02-06T21:39:53.644Z,7.33
2023-02-06T21:42:26.070Z,7.03
2023-02-06T21:44:52.800Z,9.63
2023-02-06T21:47:20.675Z,7.60
2023-02-06T21:49:47.276Z,9.57
2023-02-06T21:52:13.858Z,6.67
2023-02-06T21:54:40.469Z,9.90
2023-02-06T21:57:07.031Z,9.23
2023-02-06T21:59:34.133Z,10.27
2023-02-06T22:02:00.858Z,8.97
2023-02-06T22:04:29.229Z,9.57
2023-02-06T22:06:55.858Z,7.67
2023-02-06T22:09:23.070Z,8.43
2023-02-06T22:11:49.619Z,9.67
2023-02-06T22:14:17.823Z,8.03
2023-02-06T22:16:46.746Z,9.90
2023-02-06T22:19:14.561Z,7.93
2023-02-06T22:21:42.560Z,8.73
2023-02-06T22:24:11.458Z,6.63
2023-02-06T22:26:38.692Z,7.20
2023-02-06T22:29:06.282Z,8.10
2023-02-06T22:31:33.883Z,8.13
2023-02-06T22:34:01.101Z,8.03
2023-02-06T22:36:29.678Z,8.93
2023-02-06T22:38:59.662Z,8.70
2023-02-06T22:41:26.932Z,8.10
2023-02-06T22:43:53.549Z,9.00
2023-02-06T22:46:23.924Z,7.53
2023-02-06T22:48:51.071Z,9.40
2023-02-06T22:51:18.393Z,8.03
2023-02-06T22:53:45.371Z,8.37
2023-02-06T22:56:31.362Z,7.40
2023-02-06T22:59:00.166Z,9.07
2023-02-06T23:01:30.567Z,9.77
2023-02-06T23:03:57.787Z,8.80
2023-02-06T23:06:26.133Z,9.60
2023-02-06T23:08:53.244Z,8.10
2023-02-06T23:11:21.387Z,8.90
2023-02-06T23:13:51.568Z,9.27
2023-02-06T23:16:18.203Z,10.67
2023-02-06T23:18:44.768Z,9.83
2023-02-06T23:21:13.193Z,8.20
2023-02-06T23:23:40.754Z,13.03
2023-02-06T23:26:10.176Z,11.43
2023-02-06T23:28:38.766Z,8.80
2023-02-06T23:31:06.653Z,9.20
2023-02-06T23:33:34.048Z,10.07
2023-02-06T23:36:03.828Z,8.80
2023-02-06T23:41:04.110Z,7.73
2023-02-06T23:43:30.644Z,11.23
2023-02-06T23:45:58.665Z,10.43
2023-02-06T23:48:25.248Z,10.93
2023-02-06T23:50:52.185Z,9.90
2023-02-06T23:53:18.753Z,8.20
2023-02-06T23:55:45.316Z,16.67
2023-02-06T23:58:11.868Z,10.93
